createdAt,value
2023-04-04T00:00:57.851Z,97388.91
2023-04-04T00:03:26.140Z,97436.16
2023-04-04T00:06:29.006Z,97449.84
2023-04-04T00:08:57.425Z,97343.28
2023-04-04T00:11:27.758Z,97385.94
2023-04-04T00:13:57.550Z,97362.75
2023-04-04T00:16:25.731Z,97324.66
2023-04-04T00:18:53.928Z,97337.34
2023-04-04T00:21:23.882Z,97381.50
2023-04-04T00:23:54.505Z,97362.75
2023-04-04T00:26:22.794Z,97384.66
2023-04-04T00:28:51.618Z,97376.38
2023-04-04T00:31:21.261Z,97373.78
2023-04-04T00:33:49.605Z,97379.75
2023-04-04T00:36:18.514Z,97341.81
2023-04-04T00:38:46.832Z,97369.78
2023-04-04T00:41:15.869Z,97321.69
2023-04-04T00:43:44.076Z,97368.72
2023-04-04T00:46:15.004Z,97352.25
2023-04-04T00:48:44.836Z,97354.59
2023-04-04T00:51:13.001Z,97303.91
2023-04-04T00:53:41.918Z,97384.31
2023-04-04T00:56:10.870Z,97314.31
2023-04-04T00:58:39.628Z,97395.19
2023-04-04T01:01:07.891Z,97327.88
2023-04-04T01:03:36.382Z,97342.53
2023-04-04T01:06:06.215Z,97295.63
2023-04-04T01:08:36.540Z,97367.75
2023-04-04T01:11:06.214Z,97369.41
2023-04-04T01:13:36.172Z,97342.34
2023-04-04T01:16:04.353Z,97354.44
2023-04-04T01:18:34.820Z,97348.38
2023-04-04T01:21:10.589Z,97305.50
2023-04-04T01:23:53.442Z,97365.44
2023-04-04T01:26:26.986Z,97336.47
2023-04-04T01:28:56.750Z,97322.28
2023-04-04T01:31:34.472Z,97352.91
2023-04-04T01:34:13.117Z,97330.44
2023-04-04T01:36:50.291Z,97317.75
2023-04-04T01:39:26.430Z,97439.72
2023-04-04T01:41:58.009Z,97195.13
2023-04-04T01:44:27.018Z,97313.78
2023-04-04T01:46:56.069Z,97356.63
2023-04-04T01:49:25.118Z,97341.63
2023-04-04T01:51:55.111Z,97315.09
2023-04-04T01:54:24.114Z,97551.72
2023-04-04T01:56:53.126Z,97336.53
2023-04-04T01:59:22.916Z,97344.22
2023-04-04T02:01:51.601Z,97301.22
2023-04-04T02:04:20.303Z,97338.41
2023-04-04T02:06:55.977Z,97290.84
2023-04-04T02:09:24.991Z,97327.69
2023-04-04T02:11:53.740Z,97283.31
2023-04-04T02:14:23.351Z,97338.44
2023-04-04T02:16:51.720Z,97332.66
2023-04-04T02:19:20.058Z,97315.75
2023-04-04T02:21:48.201Z,97340.38
2023-04-04T02:24:16.469Z,97333.19
2023-04-04T02:26:44.798Z,97355.63
2023-04-04T02:29:13.234Z,97308.16
2023-04-04T02:31:42.727Z,97321.41
2023-04-04T02:34:11.430Z,97311.66
2023-04-04T02:36:39.745Z,97358.34
2023-04-04T02:39:08.045Z,97293.56
2023-04-04T02:41:39.521Z,97338.59
2023-04-04T02:44:08.871Z,97280.06
2023-04-04T02:46:38.265Z,97281.06
2023-04-04T02:49:10.807Z,97297.91
2023-04-04T02:51:41.769Z,97339.97
2023-04-04T02:54:10.113Z,97330.97
2023-04-04T02:56:42.738Z,97321.34
2023-04-04T02:59:11.126Z,97311.53
2023-04-04T03:01:39.502Z,97295.03
2023-04-04T03:04:08.045Z,97325.19
2023-04-04T03:06:40.556Z,97275.25
2023-04-04T03:09:09.532Z,97314.72
2023-04-04T03:11:37.740Z,97303.03
2023-04-04T03:14:06.680Z,97301.09
2023-04-04T03:16:40.530Z,97268.97
2023-04-04T03:19:08.916Z,97314.81
2023-04-04T03:21:38.806Z,97286.28
2023-04-04T03:24:07.922Z,97315.34
2023-04-04T03:26:36.089Z,97298.41
2023-04-04T03:29:05.253Z,97296.19
2023-04-04T03:31:34.119Z,97262.66
2023-04-04T03:34:02.579Z,97315.47
2023-04-04T03:36:31.144Z,97348.25
2023-04-04T03:39:00.761Z,97344.34
2023-04-04T03:41:28.928Z,97292.69
2023-04-04T03:43:57.062Z,97312.88
2023-04-04T03:46:26.180Z,97294.19
2023-04-04T03:48:54.521Z,97306.72
2023-04-04T03:51:25.396Z,97291.47
2023-04-04T03:53:53.633Z,97289.19
2023-04-04T03:56:23.183Z,97249.66
2023-04-04T03:58:51.565Z,97279.28
2023-04-04T04:01:27.055Z,97310.16
2023-04-04T04:06:49.805Z,97296.94
2023-04-04T04:09:19.109Z,97252.91
2023-04-04T04:11:48.614Z,97335.53
2023-04-04T04:14:16.778Z,97306.03
2023-04-04T04:16:46.040Z,97306.94
2023-04-04T04:19:18.585Z,97323.28
2023-04-04T04:21:48.132Z,97314.03
2023-04-04T04:24:16.645Z,97289.94
2023-04-04T04:26:45.592Z,97327.50
2023-04-04T04:29:18.572Z,97285.84
2023-04-04T04:31:46.940Z,97248.00
2023-04-04T04:34:15.435Z,97245.34
2023-04-04T04:36:44.203Z,97302.84
2023-04-04T04:39:22.130Z,97293.00
2023-04-04T04:42:09.073Z,97228.84
2023-04-04T04:44:43.488Z,97304.38
2023-04-04T04:47:11.921Z,97300.59
2023-04-04T04:49:40.178Z,97309.56
2023-04-04T04:52:11.397Z,97284.63
2023-04-04T04:54:44.655Z,97340.19
2023-04-04T04:57:12.939Z,97301.94
2023-04-04T04:59:46.392Z,97290.31
2023-04-04T05:02:16.698Z,97260.44
2023-04-04T05:04:47.669Z,97302.19
2023-04-04T05:07:18.328Z,97294.66
2023-04-04T05:09:48.149Z,97294.66
2023-04-04T05:12:16.607Z,97296.56
2023-04-04T05:14:49.439Z,97287.81
2023-04-04T05:17:18.454Z,97280.22
2023-04-04T05:19:47.105Z,97262.59
2023-04-04T05:22:20.162Z,97327.03
2023-04-04T05:24:52.546Z,97317.28
2023-04-04T05:27:24.800Z,97323.81
2023-04-04T05:30:02.795Z,97304.38
2023-04-04T05:32:41.742Z,97292.25
2023-04-04T05:35:17.189Z,97318.13
2023-04-04T05:37:45.769Z,97320.69
2023-04-04T05:40:17.714Z,97327.91
2023-04-04T05:42:58.602Z,97268.59
2023-04-04T05:45:35.781Z,97273.59
2023-04-04T05:48:04.440Z,97291.91
2023-04-04T05:50:37.718Z,97298.94
2023-04-04T05:53:07.315Z,97289.94
2023-04-04T05:55:35.915Z,97282.84
2023-04-04T05:58:04.532Z,97310.66
2023-04-04T06:00:47.840Z,97327.34
2023-04-04T06:03:18.422Z,97353.94
2023-04-04T06:05:53.311Z,97322.75
2023-04-04T06:08:22.019Z,97325.19
2023-04-04T06:10:50.196Z,97283.25
2023-04-04T06:13:21.586Z,97148.72
2023-04-04T06:15:56.365Z,97297.75
2023-04-04T06:18:24.590Z,97329.19
2023-04-04T06:20:52.770Z,97336.84
2023-04-04T06:23:20.997Z,97309.59
2023-04-04T06:25:51.986Z,97310.25
2023-04-04T06:28:21.851Z,97316.13
2023-04-04T06:30:50.646Z,97323.25
2023-04-04T06:33:29.382Z,97283.50
2023-04-04T06:35:57.605Z,97302.94
2023-04-04T06:38:27.357Z,97303.69
2023-04-04T06:40:55.729Z,97270.31
2023-04-04T06:43:25.653Z,97319.84
2023-04-04T06:45:54.360Z,97329.13
2023-04-04T06:48:22.544Z,97299.09
2023-04-04T06:50:52.221Z,97318.94
2023-04-04T06:53:20.849Z,97334.59
2023-04-04T06:55:49.011Z,97365.38
2023-04-04T06:58:17.176Z,97288.88
2023-04-04T07:00:45.501Z,97337.38
2023-04-04T07:03:13.714Z,97339.19
2023-04-04T07:05:42.627Z,97281.06
2023-04-04T07:08:12.886Z,97288.47
2023-04-04T07:10:41.621Z,97340.00
2023-04-04T07:13:11.088Z,97346.31
2023-04-04T07:15:39.218Z,97307.72
2023-04-04T07:18:07.641Z,97300.75
2023-04-04T07:20:35.897Z,97335.28
2023-04-04T07:23:04.069Z,97319.44
2023-04-04T07:25:33.565Z,97322.47
2023-04-04T07:28:11.734Z,97321.13
2023-04-04T07:30:41.448Z,97321.97
2023-04-04T07:33:09.922Z,97278.84
2023-04-04T07:35:38.339Z,97317.81
2023-04-04T07:38:06.572Z,97332.81
2023-04-04T07:40:36.133Z,97305.53
2023-04-04T07:43:04.308Z,97326.97
2023-04-04T07:45:32.524Z,97323.00
2023-04-04T07:48:00.763Z,97287.91
2023-04-04T07:50:28.993Z,97330.50
2023-04-04T07:52:58.637Z,97309.06
2023-04-04T07:55:26.938Z,97320.31
2023-04-04T07:57:56.574Z,97331.16
2023-04-04T08:00:26.498Z,97314.88
2023-04-04T08:02:56.311Z,97354.34
2023-04-04T08:05:24.655Z,97288.00
2023-04-04T08:07:52.844Z,97300.28
2023-04-04T08:10:21.946Z,97342.16
2023-04-04T08:12:50.292Z,97346.19
2023-04-04T08:15:19.869Z,97327.28
2023-04-04T08:17:48.474Z,97300.59
2023-04-04T08:20:16.919Z,97326.22
2023-04-04T08:22:45.165Z,97293.75
2023-04-04T08:25:14.542Z,97335.31
2023-04-04T08:27:44.996Z,97304.56
2023-04-04T08:30:15.439Z,97202.59
2023-04-04T08:32:46.172Z,97339.00
2023-04-04T08:35:15.020Z,97290.16
2023-04-04T08:37:46.078Z,97322.38
2023-04-04T08:40:14.714Z,97297.44
2023-04-04T08:42:44.385Z,97305.69
2023-04-04T08:45:13.868Z,97308.88
2023-04-04T08:47:45.191Z,97289.59
2023-04-04T08:50:13.732Z,97325.69
2023-04-04T08:52:43.204Z,97291.69
2023-04-04T08:55:12.234Z,97322.84
2023-04-04T08:57:40.913Z,97293.75
2023-04-04T09:00:11.481Z,97274.66
2023-04-04T09:02:52.478Z,97302.47
2023-04-04T09:05:21.839Z,97317.78
2023-04-04T09:07:51.552Z,97321.25
2023-04-04T09:10:20.994Z,97296.41
2023-04-04T09:12:53.722Z,97295.81
2023-04-04T09:15:23.902Z,97216.00
2023-04-04T09:17:53.832Z,97324.69
2023-04-04T09:20:42.475Z,97311.50
2023-04-04T09:23:13.150Z,97298.88
2023-04-04T09:26:02.560Z,97306.25
2023-04-04T09:28:33.342Z,97242.56
2023-04-04T09:31:05.385Z,97316.25
2023-04-04T09:33:36.360Z,97222.34
2023-04-04T09:36:10.096Z,97257.69
2023-04-04T09:38:43.162Z,97280.38
2023-04-04T09:41:12.000Z,97116.28
2023-04-04T09:43:41.291Z,97325.75
2023-04-04T09:46:10.739Z,97220.25
2023-04-04T09:48:41.581Z,97250.72
2023-04-04T09:51:13.781Z,97299.75
2023-04-04T09:53:42.610Z,97246.16
2023-04-04T09:56:11.605Z,97247.25
2023-04-04T09:58:52.349Z,97265.91
2023-04-04T10:01:30.315Z,97305.06
2023-04-04T10:04:02.110Z,97322.44
2023-04-04T10:06:31.656Z,97335.16
2023-04-04T10:09:00.291Z,97325.41
2023-04-04T10:11:33.537Z,97300.66
2023-04-04T10:14:03.862Z,97283.44
2023-04-04T10:16:37.625Z,97268.91
2023-04-04T10:19:08.727Z,97275.09
2023-04-04T10:21:37.262Z,97202.66
2023-04-04T10:24:09.813Z,97251.59
2023-04-04T10:26:38.394Z,97249.97
2023-04-04T10:29:06.885Z,97239.94
2023-04-04T10:31:41.001Z,97251.50
2023-04-04T10:34:13.887Z,97277.63
2023-04-04T10:36:47.605Z,97262.03
2023-04-04T10:39:23.115Z,97260.16
2023-04-04T10:41:53.740Z,97168.31
2023-04-04T10:44:26.011Z,97268.69
2023-04-04T10:46:55.652Z,97254.25
2023-04-04T10:49:26.122Z,97286.81
2023-04-04T10:51:57.382Z,97220.81
2023-04-04T10:54:29.070Z,97287.19
2023-04-04T10:57:01.404Z,97224.81
2023-04-04T10:59:29.761Z,97239.44
2023-04-04T11:02:00.204Z,97267.91
2023-04-04T11:04:42.503Z,97248.97
2023-04-04T11:07:17.024Z,97267.84
2023-04-04T11:09:56.436Z,97207.81
2023-04-04T11:12:31.288Z,97249.78
2023-04-04T11:15:11.035Z,97238.00
2023-04-04T11:17:56.277Z,97263.72
2023-04-04T11:20:31.742Z,97241.34
2023-04-04T11:23:08.995Z,97262.00
2023-04-04T11:25:40.519Z,97245.19
2023-04-04T11:28:26.605Z,97203.66
2023-04-04T11:31:31.055Z,97134.63
2023-04-04T11:34:05.763Z,97275.84
2023-04-04T11:36:57.981Z,97262.25
2023-04-04T11:39:29.385Z,97226.59
2023-04-04T11:42:03.610Z,97238.59
2023-04-04T11:44:34.441Z,97252.22
2023-04-04T11:47:10.395Z,97223.22
2023-04-04T11:49:41.647Z,97236.06
2023-04-04T11:52:13.705Z,97221.16
2023-04-04T11:54:43.970Z,97252.31
2023-04-04T11:57:14.226Z,97220.81
2023-04-04T11:59:43.636Z,97233.69
2023-04-04T12:02:36.958Z,97240.16
2023-04-04T12:05:06.938Z,97205.94
2023-04-04T12:07:38.364Z,97244.81
2023-04-04T12:10:09.006Z,97255.56
2023-04-04T12:12:39.784Z,97053.78
2023-04-04T12:15:17.340Z,97232.13
2023-04-04T12:17:49.106Z,97203.63
2023-04-04T12:20:17.858Z,97121.75
2023-04-04T12:22:50.964Z,97212.44
2023-04-04T12:25:22.924Z,97237.09
2023-04-04T12:27:52.635Z,97185.03
2023-04-04T12:30:21.354Z,97210.28
2023-04-04T12:32:51.650Z,97236.53
2023-04-04T12:35:19.988Z,97243.78
2023-04-04T12:38:04.454Z,97241.16
2023-04-04T12:40:38.118Z,97225.94
2023-04-04T12:43:08.781Z,97221.09
2023-04-04T12:45:41.670Z,97260.53
2023-04-04T12:48:17.998Z,97214.94
2023-04-04T12:50:55.000Z,97219.56
2023-04-04T12:53:29.551Z,97185.06
2023-04-04T12:56:04.629Z,97195.94
2023-04-04T12:58:35.940Z,97220.06
2023-04-04T13:01:06.946Z,97209.34
2023-04-04T13:03:37.634Z,97206.84
2023-04-04T13:06:13.667Z,97299.25
2023-04-04T13:08:52.719Z,97141.38
2023-04-04T13:11:21.738Z,97177.50
2023-04-04T13:13:49.985Z,97191.63
2023-04-04T13:16:32.173Z,97190.88
2023-04-04T13:19:01.048Z,97188.94
2023-04-04T13:21:29.793Z,97176.56
2023-04-04T13:23:59.344Z,97172.75
2023-04-04T13:26:27.863Z,97198.91
2023-04-04T13:28:56.068Z,97195.13
2023-04-04T13:31:24.929Z,97190.56
2023-04-04T13:33:53.105Z,97164.44
2023-04-04T13:36:21.334Z,97117.91
2023-04-04T13:38:49.552Z,97175.09
2023-04-04T13:41:19.506Z,97180.66
2023-04-04T13:43:47.659Z,97168.34
2023-04-04T13:46:16.668Z,97178.56
2023-04-04T13:48:44.842Z,97174.41
2023-04-04T13:51:12.996Z,97136.59
2023-04-04T13:53:41.841Z,97178.22
2023-04-04T13:58:43.076Z,97160.88
2023-04-04T14:01:11.783Z,97167.81
2023-04-04T14:03:45.683Z,97118.81
2023-04-04T14:06:14.472Z,97178.56
2023-04-04T14:08:42.621Z,97116.53
2023-04-04T14:11:14.433Z,97142.72
2023-04-04T14:13:44.393Z,97129.50
2023-04-04T14:16:12.845Z,97160.06
2023-04-04T14:18:41.010Z,97156.91
2023-04-04T14:21:09.309Z,97117.94
2023-04-04T14:23:37.558Z,97149.47
2023-04-04T14:26:06.425Z,97138.41
2023-04-04T14:28:34.677Z,97148.69
2023-04-04T14:31:05.870Z,97148.44
2023-04-04T14:33:34.062Z,97107.22
2023-04-04T14:36:02.210Z,97136.78
2023-04-04T14:38:32.217Z,97141.34
2023-04-04T14:41:01.923Z,97148.59
2023-04-04T14:43:30.207Z,97168.16
2023-04-04T14:45:58.383Z,97160.06
2023-04-04T14:48:28.017Z,97134.25
2023-04-04T14:50:56.266Z,97137.47
2023-04-04T14:53:24.420Z,97153.09
2023-04-04T14:55:53.308Z,97171.88
2023-04-04T14:58:21.465Z,97123.75
2023-04-04T15:00:50.355Z,97151.91
2023-04-04T15:03:18.592Z,97117.66
2023-04-04T15:05:49.947Z,97113.13
2023-04-04T15:08:18.233Z,97099.06
2023-04-04T15:10:46.733Z,97139.63
2023-04-04T15:13:16.158Z,97138.25
2023-04-04T15:15:45.519Z,97137.16
2023-04-04T15:18:13.734Z,97128.03
2023-04-04T15:20:42.262Z,97138.91
2023-04-04T15:23:12.001Z,97154.56
2023-04-04T15:25:40.241Z,97095.47
2023-04-04T15:28:08.450Z,97114.78
2023-04-04T15:30:36.756Z,97105.75
2023-04-04T15:33:05.136Z,97097.91
2023-04-04T15:35:33.311Z,97101.56
2023-04-04T15:38:01.496Z,97111.34
2023-04-04T15:40:30.982Z,97138.16
2023-04-04T15:42:59.485Z,97089.38
2023-04-04T15:45:28.184Z,97110.38
2023-04-04T15:47:56.406Z,97108.69
2023-04-04T15:50:24.602Z,97091.72
2023-04-04T15:52:53.253Z,97090.53
2023-04-04T15:55:22.281Z,97112.00
2023-04-04T15:57:51.793Z,97063.97
2023-04-04T16:00:21.589Z,97109.66
2023-04-04T16:02:50.138Z,97106.97
2023-04-04T16:05:19.326Z,97135.78
2023-04-04T16:07:47.965Z,97110.19
2023-04-04T16:10:16.346Z,97140.72
2023-04-04T16:12:44.900Z,97097.94
2023-04-04T16:15:14.520Z,97093.16
2023-04-04T16:17:42.732Z,97132.78
2023-04-04T16:20:12.955Z,97101.94
2023-04-04T16:22:41.199Z,97108.38
2023-04-04T16:25:10.272Z,97106.34
2023-04-04T16:27:38.472Z,97124.53
2023-04-04T16:30:08.283Z,97089.34
2023-04-04T16:32:38.368Z,97084.47
2023-04-04T16:35:08.281Z,97061.97
2023-04-04T16:37:36.539Z,97087.47
2023-04-04T16:40:05.079Z,97057.38
2023-04-04T16:42:33.432Z,97092.81
2023-04-04T16:45:01.684Z,97105.19
2023-04-04T16:47:29.996Z,97053.31
2023-04-04T16:49:59.911Z,97061.47
2023-04-04T16:52:28.116Z,97060.50
2023-04-04T16:54:56.282Z,97110.69
2023-04-04T16:57:24.714Z,97101.25
2023-04-04T16:59:52.933Z,97136.16
2023-04-04T17:02:21.194Z,97085.16
2023-04-04T17:04:49.408Z,97062.44
2023-04-04T17:07:19.125Z,97078.06
2023-04-04T17:09:48.628Z,97092.66
2023-04-04T17:12:17.215Z,97054.97
2023-04-04T17:14:45.699Z,97078.25
2023-04-04T17:17:14.729Z,97080.72
2023-04-04T17:19:42.905Z,97094.19
2023-04-04T17:22:11.151Z,97095.00
2023-04-04T17:24:40.733Z,97109.81
2023-04-04T17:27:08.922Z,97119.28
2023-04-04T17:29:37.785Z,97076.13
2023-04-04T17:32:07.176Z,97066.34
2023-04-04T17:34:35.560Z,97127.47
2023-04-04T17:37:03.834Z,97110.94
2023-04-04T17:39:32.038Z,97123.66
2023-04-04T17:42:01.801Z,97093.53
2023-04-04T17:44:32.498Z,97051.03
2023-04-04T17:47:00.985Z,97058.78
2023-04-04T17:49:29.368Z,97088.69
2023-04-04T17:51:57.547Z,97067.69
2023-04-04T17:54:26.822Z,97106.31
2023-04-04T17:56:58.123Z,97123.19
2023-04-04T17:59:30.998Z,96742.16
2023-04-04T18:02:04.682Z,97112.63
2023-04-04T18:04:34.332Z,96960.88
2023-04-04T18:07:06.327Z,96876.16
2023-04-04T18:09:35.207Z,97057.38
2023-04-04T18:12:04.167Z,97066.91
2023-04-04T18:14:34.648Z,97001.44
2023-04-04T18:17:03.330Z,97106.53
2023-04-04T18:19:36.340Z,97085.50
2023-04-04T18:22:05.517Z,97116.75
2023-04-04T18:24:33.676Z,96993.41
2023-04-04T18:27:02.209Z,97082.28
2023-04-04T18:29:32.476Z,97122.09
2023-04-04T18:32:03.817Z,97044.91
2023-04-04T18:34:32.207Z,97132.38
2023-04-04T18:37:01.363Z,97106.84
2023-04-04T18:39:29.508Z,97111.25
2023-04-04T18:41:57.804Z,97106.72
2023-04-04T18:44:27.054Z,97080.34
2023-04-04T18:46:58.229Z,97145.00
2023-04-04T18:49:27.852Z,97076.09
2023-04-04T18:51:56.061Z,97150.69
2023-04-04T18:54:24.356Z,97105.63
2023-04-04T18:56:52.630Z,97065.28
2023-04-04T18:59:22.453Z,97136.72
2023-04-04T19:01:52.417Z,97091.16
2023-04-04T19:04:22.236Z,97089.84
2023-04-04T19:06:54.366Z,97031.75
2023-04-04T19:09:23.208Z,96910.97
2023-04-04T19:11:54.391Z,96995.41
2023-04-04T19:14:22.607Z,97029.66
2023-04-04T19:16:52.473Z,97126.00
2023-04-04T19:19:21.496Z,97124.59
2023-04-04T19:21:51.203Z,97121.25
2023-04-04T19:24:19.462Z,97097.50
2023-04-04T19:26:47.818Z,97127.38
2023-04-04T19:29:21.019Z,97102.25
2023-04-04T19:31:49.528Z,97153.56
2023-04-04T19:34:18.649Z,96963.03
2023-04-04T19:36:48.014Z,96986.31
2023-04-04T19:39:20.690Z,97143.69
2023-04-04T19:41:49.064Z,97009.31
2023-04-04T19:44:21.239Z,97124.41
2023-04-04T19:46:50.296Z,97033.47
2023-04-04T19:49:19.249Z,97112.31
2023-04-04T19:51:52.977Z,97105.94
2023-04-04T19:54:27.494Z,97152.56
2023-04-04T19:57:02.081Z,96981.34
2023-04-04T20:00:01.660Z,97119.91
2023-04-04T20:02:56.922Z,97172.22
2023-04-04T20:06:00.672Z,97128.59
2023-04-04T20:08:41.065Z,97051.94
2023-04-04T20:11:11.621Z,97152.38
2023-04-04T20:13:42.015Z,97137.34
2023-04-04T20:16:12.840Z,97135.47
2023-04-04T20:18:44.324Z,96969.34
2023-04-04T20:21:15.737Z,97091.91
2023-04-04T20:23:53.340Z,97114.53
2023-04-04T20:26:43.868Z,97095.38
2023-04-04T20:29:14.703Z,97056.84
2023-04-04T20:31:44.973Z,97146.47
2023-04-04T20:34:38.535Z,97039.03
2023-04-04T20:37:11.349Z,97117.13
2023-04-04T20:39:43.865Z,97096.34
2023-04-04T20:42:37.976Z,97205.16
2023-04-04T20:45:44.817Z,97035.22
2023-04-04T20:48:47.373Z,97088.66
2023-04-04T20:51:30.921Z,97048.22
2023-04-04T20:54:02.523Z,96970.78
2023-04-04T20:56:55.165Z,97134.59
2023-04-04T20:59:37.822Z,97145.84
2023-04-04T21:02:16.878Z,97171.44
2023-04-04T21:04:48.288Z,97142.97
2023-04-04T21:07:40.918Z,97153.13
2023-04-04T21:10:25.481Z,97128.16
2023-04-04T21:12:54.315Z,97153.72
2023-04-04T21:15:28.510Z,97188.06
2023-04-04T21:17:57.138Z,97097.78
2023-04-04T21:21:16.666Z,97168.41
2023-04-04T21:23:47.962Z,97127.22
2023-04-04T21:26:31.975Z,96929.91
2023-04-04T21:29:03.503Z,97153.84
2023-04-04T21:31:38.844Z,97149.56
2023-04-04T21:34:14.472Z,97119.59
2023-04-04T21:36:43.252Z,97160.75
2023-04-04T21:39:13.920Z,97144.84
2023-04-04T21:41:44.957Z,97138.31
2023-04-04T21:44:13.403Z,97143.69
2023-04-04T21:46:43.539Z,97137.47
2023-04-04T21:49:12.420Z,97115.34
2023-04-04T21:51:40.988Z,97148.31
2023-04-04T21:54:09.189Z,97132.38
2023-04-04T21:56:38.317Z,97135.72
2023-04-04T21:59:09.218Z,97162.22
2023-04-04T22:01:40.859Z,97146.38
2023-04-04T22:04:21.899Z,97137.03
2023-04-04T22:06:55.422Z,97135.34
2023-04-04T22:09:25.810Z,97105.19
2023-04-04T22:11:58.784Z,97143.22
2023-04-04T22:14:27.335Z,97146.97
2023-04-04T22:16:58.741Z,97139.34
2023-04-04T22:19:34.657Z,97107.88
2023-04-04T22:22:03.383Z,97147.66
2023-04-04T22:24:31.777Z,97139.03
2023-04-04T22:27:03.791Z,97151.06
2023-04-04T22:29:31.953Z,97163.66
2023-04-04T22:32:00.197Z,97127.03
2023-04-04T22:34:29.836Z,97150.22
2023-04-04T22:36:59.232Z,97123.59
2023-04-04T22:39:27.497Z,97175.50
2023-04-04T22:41:55.658Z,97153.53
2023-04-04T22:44:25.127Z,97082.16
2023-04-04T22:46:54.601Z,97108.13
2023-04-04T22:49:22.734Z,97117.56
2023-04-04T22:51:55.419Z,97138.72
2023-04-04T22:54:23.577Z,97104.91
2023-04-04T22:56:51.736Z,97106.25
2023-04-04T22:59:19.931Z,97117.97
2023-04-04T23:01:48.203Z,97145.94
2023-04-04T23:04:16.673Z,97115.19
2023-04-04T23:06:46.342Z,97119.06
2023-04-04T23:09:16.058Z,97285.75
2023-04-04T23:11:44.288Z,97085.75
2023-04-04T23:14:15.047Z,97123.00
2023-04-04T23:16:45.410Z,97107.28
2023-04-04T23:19:14.346Z,97079.81
2023-04-04T23:21:42.632Z,97146.38
2023-04-04T23:24:11.036Z,97058.75
2023-04-04T23:26:40.676Z,97057.47
2023-04-04T23:29:09.808Z,97068.41
2023-04-04T23:31:37.998Z,97120.59
2023-04-04T23:34:13.607Z,97141.56
2023-04-04T23:36:41.824Z,97077.78
2023-04-04T23:39:09.984Z,97070.53
2023-04-04T23:41:38.173Z,97131.75
2023-04-04T23:44:07.658Z,97103.94
2023-04-04T23:46:36.999Z,97112.47
2023-04-04T23:49:05.787Z,97053.53
2023-04-04T23:51:38.305Z,97059.50
2023-04-04T23:54:07.104Z,97062.00
2023-04-04T23:56:36.171Z,96975.47
2023-04-04T23:59:05.111Z,97057.72
